»·PEaware :: N66215 KSBA-KCMA

N66215 :: KSBA-KCMA

FLIGHT INFORMATION

Flight Status: Arrived
Operator: Privately registered:
United States
More flights under this callsign
Pilot: Isabelle M. (9654)
Aircraft: CESSNA 172 SKYHAWK
(C172)
More flights by this aircraft type
Origin: KSBA Santa Barbara Mun
United States
Destination: KCMA Camarillo
United States
More flights between these airports :: More routes between these airports
Route: +KWANG CMA
File this flight plan on PilotEdge
Remarks:
Altitude:
(Current/Filed)
3,000ft
Speed:
(Current/Filed)
0kts
Departed: 10-Oct-18 05:44 PM
Arrived: 10-Oct-18 07:34 PM
Distance/Time
Traveled:
39nm/1:50
Distance/Time
To Go:
Arrived

Flight Plot

Page will automatically refresh every two minutes.


Map Options




Map Legend


Flown Route
Filed Route
Departure Airport
Arrival Airport
Navaid (VOR, NDB)
Fix

Horizontal Profiles

Position Reports

Time Latitude Longitude Heading Altitude Ground
Speed
10-Oct-18 17:45 34.264750 -119.798482 195 4007ft 97kts
10-Oct-18 17:46 34.264097 -119.822362 327 3906ft 102kts
10-Oct-18 17:47 34.287514 -119.838844 348 3895ft 104kts
10-Oct-18 17:48 34.299810 -119.809636 99 3710ft 116kts
10-Oct-18 17:49 34.300383 -119.770170 85 3548ft 117kts
10-Oct-18 17:50 34.303555 -119.729929 89 3321ft 120kts
10-Oct-18 17:51 34.303125 -119.702673 103 3156ft 120kts
10-Oct-18 17:52 34.303125 -119.702673 103 3156ft 120kts
10-Oct-18 17:53 34.303125 -119.702673 103 3156ft 120kts
10-Oct-18 17:54 34.303125 -119.702673 103 3156ft 120kts
10-Oct-18 17:55 34.303125 -119.702673 103 3156ft 120kts
10-Oct-18 17:56 34.303125 -119.702673 103 3156ft 120kts
10-Oct-18 17:57 34.303125 -119.702673 103 3156ft 120kts
10-Oct-18 17:58 34.303125 -119.702673 103 3156ft 120kts
10-Oct-18 17:59 34.303125 -119.702673 103 3156ft 120kts
10-Oct-18 18:00 34.303125 -119.702673 103 3156ft 120kts
10-Oct-18 18:01 34.303125 -119.702673 103 3156ft 120kts
10-Oct-18 18:02 34.303125 -119.702673 103 3156ft 120kts
10-Oct-18 18:03 34.303125 -119.702673 103 3156ft 120kts
10-Oct-18 18:04 34.303125 -119.702673 103 3156ft 120kts
10-Oct-18 18:05 34.303125 -119.702673 103 3156ft 120kts
10-Oct-18 18:06 34.303125 -119.702673 103 3156ft 120kts
10-Oct-18 18:07 34.303125 -119.702673 103 3156ft 120kts
10-Oct-18 18:08 34.303125 -119.702673 103 3156ft 120kts
10-Oct-18 18:09 34.303125 -119.702673 103 3156ft 120kts
10-Oct-18 18:10 34.303125 -119.702673 103 3156ft 120kts
10-Oct-18 18:11 34.303125 -119.702673 103 3156ft 120kts
10-Oct-18 18:12 34.303125 -119.702673 103 3156ft 120kts
10-Oct-18 18:13 34.303125 -119.702673 103 3156ft 120kts
10-Oct-18 18:14 34.303125 -119.702673 103 3156ft 120kts
10-Oct-18 18:15 34.303125 -119.702673 103 3156ft 120kts
10-Oct-18 18:16 34.303125 -119.702673 103 3156ft 120kts
10-Oct-18 18:17 34.303125 -119.702673 103 3156ft 120kts
10-Oct-18 18:18 34.303125 -119.702673 103 3156ft 120kts
10-Oct-18 18:19 34.303125 -119.702673 103 3156ft 120kts
10-Oct-18 18:20 34.303125 -119.702673 103 3156ft 120kts
10-Oct-18 18:21 34.303125 -119.702673 103 3156ft 120kts
10-Oct-18 18:22 34.303125 -119.702673 103 3156ft 120kts
10-Oct-18 18:23 34.303125 -119.702673 103 3156ft 120kts
10-Oct-18 18:24 34.303125 -119.702673 103 3156ft 120kts
10-Oct-18 18:25 34.303125 -119.702673 103 3156ft 120kts
10-Oct-18 18:26 34.303125 -119.702673 103 3156ft 120kts
10-Oct-18 18:27 34.303125 -119.702673 103 3156ft 120kts
10-Oct-18 18:28 34.303125 -119.702673 103 3156ft 120kts
10-Oct-18 18:29 34.303125 -119.702673 103 3156ft 120kts
10-Oct-18 18:30 34.303125 -119.702673 103 3156ft 120kts
10-Oct-18 18:31 34.303125 -119.702673 103 3156ft 120kts
10-Oct-18 18:32 34.303125 -119.702673 103 3156ft 120kts
10-Oct-18 18:33 34.303125 -119.702673 103 3156ft 120kts
10-Oct-18 18:34 34.303125 -119.702673 103 3156ft 120kts
10-Oct-18 18:35 34.303125 -119.702673 103 3156ft 120kts
10-Oct-18 18:36 34.303125 -119.702673 103 3156ft 120kts
10-Oct-18 18:37 34.303125 -119.702673 103 3156ft 120kts
10-Oct-18 18:38 34.303125 -119.702673 103 3156ft 120kts
10-Oct-18 18:39 34.303125 -119.702673 103 3156ft 120kts
10-Oct-18 18:40 34.303125 -119.702673 103 3156ft 120kts
10-Oct-18 18:41 34.303125 -119.702673 103 3156ft 120kts
10-Oct-18 18:42 34.303125 -119.702673 103 3156ft 120kts
10-Oct-18 18:43 34.303125 -119.702673 103 3156ft 120kts
10-Oct-18 18:44 34.303125 -119.702673 103 3156ft 120kts
10-Oct-18 18:45 34.303125 -119.702673 103 3156ft 120kts
10-Oct-18 18:46 34.303125 -119.702673 103 3156ft 120kts
10-Oct-18 18:47 34.303125 -119.702673 103 3156ft 120kts
10-Oct-18 18:48 34.303125 -119.702673 103 3156ft 120kts
10-Oct-18 18:49 34.303125 -119.702673 103 3156ft 120kts
10-Oct-18 18:50 34.303125 -119.702673 103 3156ft 120kts
10-Oct-18 18:51 34.303125 -119.702673 103 3156ft 120kts
10-Oct-18 18:52 34.301606 -119.679907 93 3146ft 113kts
10-Oct-18 18:53 34.300764 -119.648563 90 3092ft 111kts
10-Oct-18 18:54 34.306377 -119.613350 93 3076ft 107kts
10-Oct-18 18:55 34.305544 -119.578518 81 3075ft 105kts
10-Oct-18 18:56 34.310441 -119.542955 85 3000ft 107kts
10-Oct-18 18:57 34.306206 -119.507976 111 2910ft 105kts
10-Oct-18 18:58 34.300435 -119.473820 99 2904ft 102kts
10-Oct-18 18:59 34.297495 -119.439541 106 3070ft 102kts
10-Oct-18 19:00 34.291521 -119.405714 112 3165ft 108kts
10-Oct-18 19:01 34.281041 -119.370772 117 3134ft 111kts
10-Oct-18 19:02 34.269977 -119.335559 120 3081ft 111kts
10-Oct-18 19:03 34.255674 -119.303171 115 3095ft 110kts
10-Oct-18 19:04 34.245071 -119.267352 120 2996ft 111kts
10-Oct-18 19:05 34.232420 -119.234589 116 3067ft 108kts
10-Oct-18 19:06 34.217469 -119.201993 126 2978ft 111kts
10-Oct-18 19:07 34.201164 -119.167709 115 3110ft 123kts
10-Oct-18 19:08 34.189392 -119.131638 116 3788ft 112kts
10-Oct-18 19:09 34.173978 -119.093425 115 4724ft 106kts
10-Oct-18 19:10 34.163316 -119.065299 121 5099ft 119kts
10-Oct-18 19:11 34.147386 -119.027221 119 5093ft 122kts
10-Oct-18 19:12 34.126766 -118.996654 141 5065ft 117kts
10-Oct-18 19:13 34.102908 -118.969856 138 5016ft 123kts
10-Oct-18 19:14 34.079267 -118.941529 140 4958ft 124kts
10-Oct-18 19:15 34.053917 -118.914812 144 4932ft 118kts
10-Oct-18 19:16 34.030301 -118.891905 148 5055ft 111kts
10-Oct-18 19:17 34.019189 -118.856159 100 5037ft 123kts
10-Oct-18 19:18 34.014196 -118.814784 98 5006ft 124kts
10-Oct-18 19:19 34.008081 -118.774123 107 5015ft 124kts
10-Oct-18 19:20 34.022709 -118.742544 5 5067ft 122kts
10-Oct-18 19:21 34.052254 -118.754573 302 4931ft 117kts
10-Oct-18 19:22 34.081242 -118.777879 356 4475ft 120kts
10-Oct-18 19:23 34.107177 -118.785635 338 3986ft 117kts
10-Oct-18 19:24 34.139129 -118.792347 345 4116ft 118kts
10-Oct-18 19:25 34.179374 -118.797280 355 4067ft 126kts
10-Oct-18 19:26 34.208284 -118.800223 332 4054ft 124kts
10-Oct-18 19:27 34.212410 -118.838251 267 3768ft 124kts
10-Oct-18 19:28 34.214611 -118.875933 274 3252ft 104kts
10-Oct-18 19:29 34.216896 -118.910179 272 2768ft 102kts
10-Oct-18 19:30 34.213355 -118.942885 258 2550ft 81kts
10-Oct-18 19:31 34.212824 -118.971107 271 2000ft 86kts
10-Oct-18 19:32 34.212718 -119.000536 270 1401ft 89kts
10-Oct-18 19:33 34.212648 -119.029096 263 969ft 85kts
10-Oct-18 19:34 34.213388 -119.054713 266 634ft 72kts
10-Oct-18 19:35 34.213534 -119.078049 266 270ft 63kts
10-Oct-18 19:36 34.213585 -119.089893 251 80ft 17kts
10-Oct-18 19:37 34.211771 -119.090317 120 79ft 0kts
10-Oct-18 19:38 34.211771 -119.090317 120 79ft 0kts

Navigation Log

Ident Type
1. KSBA Airport
2. KWANG Fix
3. CMA Navaid
4. KCMA Airport